Accueil
METAR-TAF:

METAR-TAF

Aéroports :

Aéroport de Bergerac-Dordogne-Périgord

Bergerac, France

latitude: 44-49N, longitude: 000-31E, altitude: 51 m

Observation

Le bulletin a été fait il y a 37 minutes, à 23:00 UTC
Vent 7 kt de est/nord-est, variant entre nord/nord-est et est
Température 13°C
Humidité 62%
Pression 1014 hPa
Visibilité 10 km ou plus
pas de nuages en-dessous de 1500 mètres et pas de cumulonimbus.

METAR: LFBE 202300Z AUTO 06007KT 030V100 CAVOK 13/06 Q1014

Heure: 01:37 (23:37 UTC)

Prévision

Le bulletin a été fait il y a 37 minutes, à 23:00 UTC
Prévision valable du 21 à 00 UTC au 21 à 24 UTC
Vent 5 kt de est/nord-est
Visibilité 10 km ou plus
pas de nuages en-dessous de 1500 mètres et pas de cumulonimbus.
Temporairement
du 21 à 00 UTC au 21 à 02 UTC
Nuages épars à une hauteur de 4000 ft, Cumulus congestus.
faibles averses de pluie

TAF: LFBE 202300Z 2100/2124 06005KT CAVOK TEMPO 2100/2102 -SHRA SCT040TCU

Observations et prévisions météorologiques de plus de 4000 aéroports (messages METAR et TAF).

Les stations disponibles sont représentées par des disques jaunes et rouges sur la carte.

Passer la souris dessus pour voir le nom de la station.

Cliquer dessus pour voir les observations et prévisions météorologiques.

Pour changer de carte: cliquez sur les boutons verts avec une croix noire pour zoomer, sur le bouton vert avec un tiret pour effectuer un zoom arrière, ou sur les flèches vertes pour les cartes adjacentes.


METAR-TAF: